Date,TemperatureHighF,TemperatureAvgF,TemperatureLowF,DewpointHighF,DewpointAvgF,DewpointLowF,HumidityHigh,HumidityAvg,HumidityLow,PressureMaxIn,PressureMinIn,WindSpeedMaxMPH,WindSpeedAvgMPH,GustSpeedMaxMPH,PrecipitationSumIn
2013-10-1,74.4,60.0,49.2,62.1,56.2,48.4,100,89,58,29.90,29.78,16,2,19,0.01
2013-10-2,76.3,57.7,46.9,66.2,54.5,46.4,100,90,60,29.98,29.82,14,2,16,0.00
2013-10-3,77.8,59.2,47.2,68.1,56.8,46.9,100,93,69,30.00,29.82,13,1,15,0.01
2013-10-4,80.0,66.1,58.3,69.7,63.2,57.6,100,91,69,29.87,29.76,15,2,16,0.03
2013-10-5,79.8,66.8,58.5,69.8,64.1,58.2,100,92,70,29.87,29.73,12,1,15,0.00
2013-10-6,80.0,68.9,62.0,72.2,65.1,61.0,100,89,67,29.74,29.46,15,1,19,0.04
2013-10-7,72.3,56.4,46.1,62.1,50.5,42.9,96,81,66,29.96,29.36,25,6,29,0.78
2013-10-8,64.8,48.6,38.4,54.5,44.2,37.4,99,87,49,30.29,29.96,9,0,12,0.00
2013-10-9,68.0,48.1,36.3,57.1,42.2,35.7,100,84,40,30.37,30.21,10,0,10,0.01
2013-10-10,68.8,46.8,32.8,51.3,41.1,32.2,99,84,43,30.25,30.08,7,0,9,0.00
2013-10-11,74.0,52.8,40.4,53.1,44.8,39.4,98,79,36,30.08,29.95,11,0,11,0.00
2013-10-12,76.5,54.1,38.2,58.7,47.4,37.4,98,81,44,30.10,29.96,12,1,13,0.00
2013-10-13,66.1,57.1,46.1,60.5,54.4,45.0,99,91,76,30.16,30.06,13,1,14,0.11
2013-10-14,65.0,54.7,40.5,57.5,51.0,39.3,98,88,67,30.22,30.10,9,0,10,0.04
2013-10-15,67.5,54.1,39.9,58.7,51.2,39.1,98,90,73,30.18,29.83,14,0,14,0.00
2013-10-16,62.2,57.6,49.0,59.7,55.6,47.4,98,93,80,29.83,29.61,15,1,19,0.48
2013-10-17,60.8,49.8,43.0,54.2,47.3,42.5,100,92,64,29.78,29.54,18,2,24,0.38
2013-10-18,59.6,48.8,37.8,45.8,43.0,36.8,97,82,51,29.86,29.69,22,6,26,0.04
2013-10-19,55.9,43.7,35.4,46.7,40.4,34.7,99,89,64,29.85,29.58,25,3,28,0.15
2013-10-20,55.3,43.3,34.4,42.6,38.0,33.1,97,83,58,29.98,29.80,22,4,23,0.01
2013-10-21,64.3,48.4,32.7,46.9,38.2,31.9,98,72,37,30.00,29.71,26,2,28,0.00
2013-10-22,53.7,42.1,30.5,47.7,36.7,29.0,95,82,57,29.82,29.66,21,6,26,0.18
2013-10-23,42.2,35.4,31.0,37.7,33.3,30.0,96,92,75,29.89,29.71,19,2,21,0.06
2013-10-24,37.1,34.5,31.0,34.4,32.5,30.0,97,92,87,30.12,29.87,18,6,21,0.27
2013-10-25,46.5,37.3,32.0,38.7,33.5,30.0,97,87,58,30.30,30.12,21,4,25,0.26
2013-10-26,43.6,38.1,28.6,34.8,29.6,26.3,93,72,56,30.22,29.82,27,6,28,0.04
2013-10-27,43.3,36.9,26.6,37.8,33.4,25.3,96,88,68,30.12,29.90,20,4,21,0.03
2013-10-28,51.9,35.6,25.1,43.3,32.1,24.1,98,88,60,30.42,30.12,11,0,11,0.01
2013-10-29,53.9,39.3,28.8,39.8,33.9,27.7,98,83,52,30.48,30.31,12,0,13,0.00
2013-10-30,64.3,42.0,27.5,46.4,35.9,26.5,97,82,43,30.31,30.08,9,0,12,0.00
2013-10-31,64.0,54.4,34.2,59.5,52.3,33.1,98,93,82,30.09,29.23,16,1,22,0.83